Time;durP1;ratioP1;P1;durP2;ratioP2;P2;SDS_P1;SDS_P2;PMS_P1;PMS_P2;Temp;Humidity;BMP_temperature;BMP_pressure;BME280_temperature;BME280_humidity;BME280_pressure;Samples;Min_cycle;Max_cycle;Signal;HPM_P1;HPM_P2
2024/01/04 00:01:20;;;;;;;10.65;2.38;;;;;;;;;;5050443;27;98225;-79
2024/01/04 00:03:46;;;;;;;4.43;1.40;;;;;;;;;;5050703;27;100379;-79
2024/01/04 00:06:14;;;;;;;5.15;1.85;;;;;;;;;;5050851;27;100100;-79
2024/01/04 00:08:40;;;;;;;3.63;1.90;;;;;;;;;;5050199;27;98370;-79
2024/01/04 00:11:07;;;;;;;5.38;2.17;;;;;;;;;;5049795;27;99967;-80
2024/01/04 00:13:34;;;;;;;11.35;2.60;;;;;;;;;;5053287;27;98344;-79
2024/01/04 00:16:00;;;;;;;7.22;2.50;;;;;;;;;;5049628;27;99351;-79
2024/01/04 00:18:27;;;;;;;2.90;1.75;;;;;;;;;;5050479;27;100054;-79
2024/01/04 00:20:54;;;;;;;6.53;2.10;;;;;;;;;;5050589;27;98245;-81
2024/01/04 00:23:20;;;;;;;6.05;1.80;;;;;;;;;;5049713;27;99333;-79
2024/01/04 00:25:47;;;;;;;12.30;2.15;;;;;;;;;;5050660;27;100053;-79
2024/01/04 00:28:13;;;;;;;7.80;2.85;;;;;;;;;;5050468;27;98303;-78
2024/01/04 00:30:40;;;;;;;9.27;2.15;;;;;;;;;;5048534;27;101073;-78
2024/01/04 00:33:07;;;;;;;9.65;2.88;;;;;;;;;;5053412;27;98649;-78
2024/01/04 00:35:33;;;;;;;6.65;2.22;;;;;;;;;;5048546;27;100999;-78
2024/01/04 00:38:00;;;;;;;6.13;2.22;;;;;;;;;;5049387;27;99028;-79
2024/01/04 00:40:28;;;;;;;10.55;2.50;;;;;;;;;;5050474;27;98272;-79
2024/01/04 00:42:55;;;;;;;14.73;2.83;;;;;;;;;;5049215;27;99834;-79
2024/01/04 00:45:21;;;;;;;8.77;2.90;;;;;;;;;;5049063;27;100112;-79
2024/01/04 00:47:48;;;;;;;9.40;3.05;;;;;;;;;;5050507;27;98693;-79
2024/01/04 00:50:15;;;;;;;18.23;4.10;;;;;;;;;;5050237;27;98597;-79
2024/01/04 00:52:41;;;;;;;12.98;3.30;;;;;;;;;;5049796;27;98838;-79
2024/01/04 00:55:08;;;;;;;6.80;2.90;;;;;;;;;;5053747;27;98189;-79
2024/01/04 00:57:34;;;;;;;6.80;2.22;;;;;;;;;;5049988;27;98873;-80
2024/01/04 01:00:03;;;;;;;7.40;2.65;;;;;;;;;;5048660;27;98571;-78
2024/01/04 01:02:29;;;;;;;6.78;2.28;;;;;;;;;;5050134;27;98395;-79
2024/01/04 01:04:56;;;;;;;14.20;2.58;;;;;;;;;;5049634;27;98810;-79
2024/01/04 01:07:22;;;;;;;7.43;2.35;;;;;;;;;;5049767;27;98886;-79
2024/01/04 01:09:49;;;;;;;9.00;3.22;;;;;;;;;;5050076;27;98695;-78
2024/01/04 01:12:15;;;;;;;7.45;3.22;;;;;;;;;;5049005;27;98814;-79
2024/01/04 01:14:42;;;;;;;10.45;6.15;;;;;;;;;;5048223;27;98387;-79
2024/01/04 01:17:08;;;;;;;6.93;4.20;;;;;;;;;;5053047;27;99280;-79
2024/01/04 01:19:35;;;;;;;7.05;3.05;;;;;;;;;;5047878;27;98450;-79
2024/01/04 01:22:02;;;;;;;3.95;2.67;;;;;;;;;;5048239;27;99862;-79
2024/01/04 01:24:28;;;;;;;6.75;2.75;;;;;;;;;;5049168;27;98536;-78
2024/01/04 01:26:55;;;;;;;10.57;3.15;;;;;;;;;;5047711;27;98593;-78
2024/01/04 01:29:21;;;;;;;8.85;2.38;;;;;;;;;;5049787;27;99106;-78
2024/01/04 01:31:48;;;;;;;11.18;3.25;;;;;;;;;;5049510;27;98968;-79
2024/01/04 01:34:14;;;;;;;10.57;3.60;;;;;;;;;;5048497;27;98449;-78
2024/01/04 01:36:41;;;;;;;6.43;2.80;;;;;;;;;;5049922;27;98481;-79
2024/01/04 01:39:08;;;;;;;6.22;2.70;;;;;;;;;;5051323;27;101569;-78
2024/01/04 01:41:35;;;;;;;4.32;2.70;;;;;;;;;;5049328;27;98458;-78
2024/01/04 01:44:02;;;;;;;6.28;2.40;;;;;;;;;;5047850;27;99541;-78
2024/01/04 01:46:29;;;;;;;14.88;2.17;;;;;;;;;;5048105;27;98333;-78
2024/01/04 01:48:55;;;;;;;6.80;2.58;;;;;;;;;;5048002;27;98340;-78
2024/01/04 01:51:22;;;;;;;9.30;3.03;;;;;;;;;;5049539;27;98147;-78
2024/01/04 01:53:48;;;;;;;9.82;2.47;;;;;;;;;;5049433;27;98233;-78
2024/01/04 01:56:15;;;;;;;11.15;2.63;;;;;;;;;;5046946;27;101158;-78
2024/01/04 01:58:44;;;;;;;3.15;1.92;;;;;;;;;;5048004;27;101966;-78
2024/01/04 02:01:11;;;;;;;13.10;2.67;;;;;;;;;;5054896;27;99719;-78
2024/01/04 02:03:37;;;;;;;6.72;2.10;;;;;;;;;;5048810;27;100042;-78
2024/01/04 02:06:04;;;;;;;4.25;1.55;;;;;;;;;;5049100;27;98257;-78
2024/01/04 02:08:31;;;;;;;4.70;1.63;;;;;;;;;;5048694;27;98283;-78
2024/01/04 02:10:57;;;;;;;5.85;1.88;;;;;;;;;;5048396;27;99036;-78
2024/01/04 02:13:24;;;;;;;15.13;2.17;;;;;;;;;;5046939;27;98366;-78
2024/01/04 02:15:50;;;;;;;1.75;1.55;;;;;;;;;;5047341;27;100924;-79
2024/01/04 02:18:16;;;;;;;2.00;1.55;;;;;;;;;;5046656;27;102405;-78
2024/01/04 02:20:43;;;;;;;1.67;1.58;;;;;;;;;;5052951;27;98244;-78
2024/01/04 02:23:16;;;;;;;2.90;1.42;;;;;;;;;;5047720;27;99020;-78
2024/01/04 02:25:43;;;;;;;4.28;1.65;;;;;;;;;;5048977;27;98209;-78
2024/01/04 02:28:10;;;;;;;3.92;1.15;;;;;;;;;;5047348;27;98831;-78
2024/01/04 02:30:36;;;;;;;16.25;2.53;;;;;;;;;;5046773;27;99175;-78
2024/01/04 02:33:03;;;;;;;3.08;1.83;;;;;;;;;;5048799;27;98261;-79
2024/01/04 02:35:30;;;;;;;1.75;1.50;;;;;;;;;;5048886;27;98441;-78
2024/01/04 02:37:56;;;;;;;3.83;1.65;;;;;;;;;;5046640;27;99930;-78
2024/01/04 02:40:23;;;;;;;3.28;1.65;;;;;;;;;;5048564;27;98222;-78
2024/01/04 02:42:50;;;;;;;8.73;1.70;;;;;;;;;;5051596;27;99407;-78
2024/01/04 02:45:16;;;;;;;2.30;1.30;;;;;;;;;;5047854;27;98244;-78
2024/01/04 02:47:43;;;;;;;4.65;1.75;;;;;;;;;;5047155;27;99709;-78
2024/01/04 02:50:11;;;;;;;8.07;1.65;;;;;;;;;;5047376;27;99564;-78
2024/01/04 02:52:38;;;;;;;1.83;1.70;;;;;;;;;;5046838;27;98451;-79
2024/01/04 02:55:04;;;;;;;3.08;1.58;;;;;;;;;;5048613;27;98316;-78
2024/01/04 02:57:31;;;;;;;3.03;1.08;;;;;;;;;;5046278;27;99556;-79
2024/01/04 02:59:57;;;;;;;1.58;1.08;;;;;;;;;;5048378;27;98830;-78
2024/01/04 03:02:24;;;;;;;7.88;2.20;;;;;;;;;;5047442;27;99977;-79
2024/01/04 03:04:50;;;;;;;5.65;1.50;;;;;;;;;;5050754;27;100041;-78
2024/01/04 03:07:17;;;;;;;7.25;1.50;;;;;;;;;;5047634;27;99485;-78
2024/01/04 03:09:43;;;;;;;5.50;1.75;;;;;;;;;;5047985;27;100219;-78
2024/01/04 03:12:10;;;;;;;8.82;1.95;;;;;;;;;;5047133;27;98162;-79
2024/01/04 03:14:36;;;;;;;1.95;1.45;;;;;;;;;;5047560;27;99403;-79
2024/01/04 03:17:03;;;;;;;8.35;1.30;;;;;;;;;;5047600;27;99931;-79
2024/01/04 03:19:29;;;;;;;9.85;1.90;;;;;;;;;;5047255;27;98233;-79
2024/01/04 03:21:56;;;;;;;2.88;1.88;;;;;;;;;;5047787;27;99407;-80
2024/01/04 03:24:22;;;;;;;8.82;1.50;;;;;;;;;;5047764;27;100246;-79
2024/01/04 03:26:49;;;;;;;5.50;1.65;;;;;;;;;;5049812;27;98221;-79
2024/01/04 03:29:15;;;;;;;5.28;1.90;;;;;;;;;;5047330;27;99918;-79
2024/01/04 03:31:42;;;;;;;8.07;1.80;;;;;;;;;;5047828;27;98691;-79
2024/01/04 03:34:08;;;;;;;3.00;1.73;;;;;;;;;;5046423;27;99624;-79
2024/01/04 03:36:35;;;;;;;6.45;1.88;;;;;;;;;;5047513;27;99916;-80
2024/01/04 03:39:01;;;;;;;2.17;1.75;;;;;;;;;;5047379;27;98320;-80
2024/01/04 03:41:28;;;;;;;3.67;2.10;;;;;;;;;;5046599;27;98683;-80
2024/01/04 03:43:54;;;;;;;5.80;2.08;;;;;;;;;;5047506;27;99365;-79
2024/01/04 03:46:20;;;;;;;6.05;2.10;;;;;;;;;;5047335;27;98227;-80
2024/01/04 03:48:48;;;;;;;5.20;2.08;;;;;;;;;;5049886;27;99759;-80
2024/01/04 03:51:14;;;;;;;13.07;2.10;;;;;;;;;;5046488;27;98209;-80
2024/01/04 03:53:41;;;;;;;4.32;2.10;;;;;;;;;;5046978;27;99809;-80
2024/01/04 03:56:07;;;;;;;4.95;2.28;;;;;;;;;;5047144;27;99909;-79
2024/01/04 03:58:35;;;;;;;5.72;2.20;;;;;;;;;;5047443;27;98257;-80
2024/01/04 04:01:02;;;;;;;6.90;2.17;;;;;;;;;;5046433;27;99376;-79
2024/01/04 04:03:28;;;;;;;5.95;2.10;;;;;;;;;;5047358;27;100959;-80
2024/01/04 04:05:55;;;;;;;4.05;1.50;;;;;;;;;;5046862;27;98233;-80
2024/01/04 04:08:21;;;;;;;3.60;1.35;;;;;;;;;;5046782;27;99594;-79
2024/01/04 04:10:48;;;;;;;4.07;2.00;;;;;;;;;;5050768;27;99892;-78
2024/01/04 04:13:14;;;;;;;2.60;1.65;;;;;;;;;;5046924;27;99365;-78
2024/01/04 04:15:40;;;;;;;3.72;1.70;;;;;;;;;;5045365;27;100594;-79
2024/01/04 04:18:07;;;;;;;3.03;1.58;;;;;;;;;;5046238;27;98711;-78
2024/01/04 04:20:34;;;;;;;5.80;2.20;;;;;;;;;;5047291;27;99648;-79
2024/01/04 04:23:00;;;;;;;7.78;1.85;;;;;;;;;;5045908;27;99923;-79
2024/01/04 04:25:27;;;;;;;6.75;1.73;;;;;;;;;;5047282;27;98457;-79
2024/01/04 04:27:54;;;;;;;5.30;1.45;;;;;;;;;;5047203;27;99706;-78
2024/01/04 04:30:20;;;;;;;4.13;2.00;;;;;;;;;;5049029;27;100470;-79
2024/01/04 04:32:47;;;;;;;4.85;1.50;;;;;;;;;;5047214;27;100110;-79
2024/01/04 04:35:14;;;;;;;4.38;1.80;;;;;;;;;;5046405;27;100006;-79
2024/01/04 04:37:40;;;;;;;2.60;1.92;;;;;;;;;;5046440;27;98339;-79
2024/01/04 04:40:07;;;;;;;5.65;2.30;;;;;;;;;;5045690;27;99669;-79
2024/01/04 04:42:36;;;;;;;5.68;1.98;;;;;;;;;;5049011;27;99893;-80
2024/01/04 04:45:02;;;;;;;6.72;1.92;;;;;;;;;;5049372;27;98825;-79
2024/01/04 04:47:29;;;;;;;6.75;1.90;;;;;;;;;;5050354;27;99594;-78
2024/01/04 04:49:55;;;;;;;4.75;1.70;;;;;;;;;;5049504;27;100360;-79
2024/01/04 04:52:22;;;;;;;6.93;1.60;;;;;;;;;;5053815;27;98240;-79
2024/01/04 04:54:48;;;;;;;10.30;2.00;;;;;;;;;;5050320;27;99960;-78
2024/01/04 04:57:15;;;;;;;3.13;1.65;;;;;;;;;;5049917;27;98171;-79
2024/01/04 04:59:41;;;;;;;2.78;1.77;;;;;;;;;;5051718;27;99337;-79
2024/01/04 05:02:08;;;;;;;1.67;1.58;;;;;;;;;;5053978;27;98886;-79
2024/01/04 05:04:34;;;;;;;6.07;2.45;;;;;;;;;;5054752;27;98331;-78
2024/01/04 05:07:01;;;;;;;5.55;2.53;;;;;;;;;;5056428;27;99503;-79
2024/01/04 05:09:27;;;;;;;6.90;2.33;;;;;;;;;;5056353;27;100051;-78
2024/01/04 05:11:54;;;;;;;5.88;2.00;;;;;;;;;;5058764;27;98527;-78
2024/01/04 05:14:20;;;;;;;7.80;2.15;;;;;;;;;;5057896;27;98199;-78
2024/01/04 05:16:47;;;;;;;8.75;3.00;;;;;;;;;;5056361;27;98029;-78
2024/01/04 05:19:13;;;;;;;7.75;2.72;;;;;;;;;;5054318;27;99534;-78
2024/01/04 05:21:40;;;;;;;5.05;2.45;;;;;;;;;;5050985;27;99823;-78
2024/01/04 05:24:06;;;;;;;11.82;2.10;;;;;;;;;;5050065;27;98257;-79
2024/01/04 05:26:33;;;;;;;6.65;2.50;;;;;;;;;;5050823;27;99242;-79
2024/01/04 05:28:59;;;;;;;6.22;2.15;;;;;;;;;;5050295;27;99910;-78
2024/01/04 05:31:26;;;;;;;7.38;2.15;;;;;;;;;;5049955;27;99020;-78
2024/01/04 05:33:52;;;;;;;5.97;2.33;;;;;;;;;;5049556;27;99550;-78
2024/01/04 05:36:20;;;;;;;7.03;2.60;;;;;;;;;;5052392;27;100142;-78
2024/01/04 05:38:47;;;;;;;2.50;2.30;;;;;;;;;;5049826;27;99757;-78
2024/01/04 05:41:13;;;;;;;4.55;2.95;;;;;;;;;;5048484;27;100038;-78
2024/01/04 05:43:39;;;;;;;4.15;2.00;;;;;;;;;;5049707;27;98398;-78
2024/01/04 05:46:06;;;;;;;6.40;2.13;;;;;;;;;;5049103;27;99512;-78
2024/01/04 05:48:32;;;;;;;7.03;2.42;;;;;;;;;;5049303;27;100255;-78
2024/01/04 05:50:59;;;;;;;4.40;2.47;;;;;;;;;;5049229;27;98272;-78
2024/01/04 05:53:26;;;;;;;4.80;2.15;;;;;;;;;;5047200;27;99397;-78
2024/01/04 05:55:53;;;;;;;1.88;1.77;;;;;;;;;;5048478;27;98441;-78
2024/01/04 05:58:19;;;;;;;2.40;2.00;;;;;;;;;;5052326;27;98142;-79
2024/01/04 06:00:46;;;;;;;3.25;2.85;;;;;;;;;;5048669;27;100039;-79
2024/01/04 06:03:12;;;;;;;6.65;2.20;;;;;;;;;;5048772;27;98249;-78
2024/01/04 06:05:39;;;;;;;3.17;1.75;;;;;;;;;;5049358;27;99615;-78
2024/01/04 06:08:05;;;;;;;4.40;2.35;;;;;;;;;;5047444;27;99166;-78
2024/01/04 06:10:32;;;;;;;7.72;2.42;;;;;;;;;;5048880;27;98847;-78
2024/01/04 06:12:58;;;;;;;2.38;1.90;;;;;;;;;;5051618;27;99753;-78
2024/01/04 06:15:25;;;;;;;5.32;2.15;;;;;;;;;;5048758;27;100088;-78
2024/01/04 06:17:51;;;;;;;2.42;2.22;;;;;;;;;;5048183;27;98253;-78
2024/01/04 06:20:18;;;;;;;4.90;2.25;;;;;;;;;;5051950;27;99326;-78
2024/01/04 06:22:44;;;;;;;3.60;2.20;;;;;;;;;;5048583;27;98471;-78
2024/01/04 06:25:10;;;;;;;2.97;1.95;;;;;;;;;;5048276;27;99461;-78
2024/01/04 06:27:38;;;;;;;6.10;2.50;;;;;;;;;;5048814;27;99999;-79
2024/01/04 06:30:06;;;;;;;13.95;2.80;;;;;;;;;;5047750;27;98256;-79
2024/01/04 06:32:32;;;;;;;4.13;2.13;;;;;;;;;;5048950;27;99730;-79
2024/01/04 06:34:59;;;;;;;5.43;2.97;;;;;;;;;;5048267;27;99914;-79
2024/01/04 06:37:25;;;;;;;7.75;2.80;;;;;;;;;;5048072;27;98208;-79
2024/01/04 06:39:52;;;;;;;7.78;2.20;;;;;;;;;;5051998;27;99477;-77
2024/01/04 06:42:19;;;;;;;6.45;1.95;;;;;;;;;;5046770;27;98291;-76
2024/01/04 06:44:47;;;;;;;6.68;2.20;;;;;;;;;;5048311;27;99818;-77
2024/01/04 06:47:14;;;;;;;2.72;2.53;;;;;;;;;;5048170;27;99628;-78
2024/01/04 06:49:41;;;;;;;4.68;3.60;;;;;;;;;;5047915;27;98577;-77
2024/01/04 06:52:08;;;;;;;4.63;2.92;;;;;;;;;;5047583;27;99431;-78
2024/01/04 06:54:34;;;;;;;3.15;2.83;;;;;;;;;;5048210;27;98971;-78
2024/01/04 06:57:02;;;;;;;5.35;2.90;;;;;;;;;;5047543;27;99635;-78
2024/01/04 06:59:29;;;;;;;9.20;2.95;;;;;;;;;;5048569;27;99341;-78
2024/01/04 07:01:55;;;;;;;8.43;3.20;;;;;;;;;;5051358;27;100267;-77
2024/01/04 07:04:22;;;;;;;5.07;3.38;;;;;;;;;;5047078;27;99288;-78
2024/01/04 07:06:48;;;;;;;3.50;3.20;;;;;;;;;;5047129;27;99892;-79
2024/01/04 07:09:15;;;;;;;7.55;3.60;;;;;;;;;;5047688;27;98219;-78
2024/01/04 07:11:41;;;;;;;3.67;3.00;;;;;;;;;;5047568;27;99412;-79
2024/01/04 07:14:09;;;;;;;6.10;3.65;;;;;;;;;;5047472;27;99959;-79
2024/01/04 07:16:41;;;;;;;6.53;3.80;;;;;;;;;;5047649;27;98233;-79
2024/01/04 07:19:07;;;;;;;10.20;3.53;;;;;;;;;;5046603;27;98625;-79
2024/01/04 07:21:35;;;;;;;4.47;3.55;;;;;;;;;;5047026;27;98898;-79
2024/01/04 07:24:01;;;;;;;4.68;3.17;;;;;;;;;;5051139;27;97986;-79
2024/01/04 07:26:28;;;;;;;5.57;3.03;;;;;;;;;;5047102;27;99164;-79
2024/01/04 07:28:54;;;;;;;10.10;3.28;;;;;;;;;;5047369;27;98259;-79
2024/01/04 07:31:21;;;;;;;7.00;3.10;;;;;;;;;;5047005;27;99507;-79
2024/01/04 07:33:47;;;;;;;8.82;2.45;;;;;;;;;;5046543;27;99968;-79
2024/01/04 07:36:14;;;;;;;5.80;2.55;;;;;;;;;;5047383;27;98562;-79
2024/01/04 07:38:41;;;;;;;5.22;3.05;;;;;;;;;;5046757;27;99850;-79
2024/01/04 07:41:08;;;;;;;4.65;2.75;;;;;;;;;;5046723;27;100352;-79
2024/01/04 07:43:35;;;;;;;6.07;2.38;;;;;;;;;;5047435;27;98442;-79
2024/01/04 07:46:01;;;;;;;4.93;2.28;;;;;;;;;;5049678;27;99347;-79
2024/01/04 07:48:29;;;;;;;4.57;2.13;;;;;;;;;;5047063;27;98757;-79
2024/01/04 07:50:55;;;;;;;3.58;2.22;;;;;;;;;;5047269;27;99687;-79
2024/01/04 07:53:22;;;;;;;3.72;2.03;;;;;;;;;;5046379;27;100046;-79
2024/01/04 07:55:48;;;;;;;6.43;1.73;;;;;;;;;;5046459;27;98240;-79
2024/01/04 07:58:15;;;;;;;3.55;1.83;;;;;;;;;;5046877;27;99735;-79
2024/01/04 08:00:41;;;;;;;9.68;2.10;;;;;;;;;;5046187;27;99884;-79
2024/01/04 08:03:08;;;;;;;4.82;2.30;;;;;;;;;;5046563;27;98311;-79
2024/01/04 08:05:34;;;;;;;2.65;1.80;;;;;;;;;;5047346;27;99485;-79
2024/01/04 08:08:01;;;;;;;4.43;2.13;;;;;;;;;;5049361;27;100099;-79
2024/01/04 08:10:28;;;;;;;3.42;1.77;;;;;;;;;;5047246;27;99438;-79
2024/01/04 08:12:54;;;;;;;16.15;2.65;;;;;;;;;;5047134;27;99052;-79
2024/01/04 08:15:20;;;;;;;8.30;2.17;;;;;;;;;;5044961;27;98355;-79
2024/01/04 08:17:47;;;;;;;5.22;2.00;;;;;;;;;;5049363;27;99770;-79
2024/01/04 08:20:13;;;;;;;3.53;2.00;;;;;;;;;;5049510;27;99915;-79
2024/01/04 08:22:41;;;;;;;4.07;2.17;;;;;;;;;;5049741;27;98097;-79
2024/01/04 08:25:08;;;;;;;7.68;2.95;;;;;;;;;;5050191;27;99516;-79
2024/01/04 08:27:34;;;;;;;9.13;2.40;;;;;;;;;;5049607;27;99013;-79
2024/01/04 08:30:01;;;;;;;12.38;2.42;;;;;;;;;;5052970;27;98165;-78
2024/01/04 08:32:28;;;;;;;7.80;2.35;;;;;;;;;;5050328;27;100016;-78
2024/01/04 08:34:54;;;;;;;8.95;2.60;;;;;;;;;;5049760;27;98210;-78
2024/01/04 08:37:21;;;;;;;2.42;1.90;;;;;;;;;;5050519;27;100018;-78
2024/01/04 08:39:49;;;;;;;6.35;1.77;;;;;;;;;;5049864;27;100005;-78
2024/01/04 08:42:15;;;;;;;3.30;1.77;;;;;;;;;;5049268;27;98448;-78
2024/01/04 08:44:46;;;;;;;3.05;1.88;;;;;;;;;;5049191;27;98563;-78
2024/01/04 08:47:12;;;;;;;14.32;2.70;;;;;;;;;;5049735;27;100202;-78
2024/01/04 08:49:39;;;;;;;4.65;2.17;;;;;;;;;;5052616;27;98249;-78
2024/01/04 08:52:06;;;;;;;10.20;1.80;;;;;;;;;;5048954;27;98886;-78
2024/01/04 08:54:33;;;;;;;2.47;1.92;;;;;;;;;;5049833;27;98419;-78
2024/01/04 08:56:59;;;;;;;8.95;2.47;;;;;;;;;;5048914;27;99831;-78
2024/01/04 08:59:26;;;;;;;7.82;3.38;;;;;;;;;;5049901;27;100038;-79
2024/01/04 09:01:52;;;;;;;17.70;7.35;;;;;;;;;;5050173;27;98289;-78
2024/01/04 09:04:20;;;;;;;20.20;6.60;;;;;;;;;;5049422;27;99460;-79
2024/01/04 09:06:47;;;;;;;5.05;3.58;;;;;;;;;;5049987;27;100131;-79
2024/01/04 09:09:14;;;;;;;6.72;2.65;;;;;;;;;;5049024;27;97951;-78
2024/01/04 09:11:41;;;;;;;2.42;2.00;;;;;;;;;;5052040;27;99498;-79
2024/01/04 09:14:11;;;;;;;4.40;2.78;;;;;;;;;;5049052;27;98262;-77
2024/01/04 09:16:39;;;;;;;4.28;3.30;;;;;;;;;;5050268;27;99869;-79
2024/01/04 09:19:06;;;;;;;5.65;2.78;;;;;;;;;;5048618;27;99991;-79
2024/01/04 09:21:32;;;;;;;14.07;3.80;;;;;;;;;;5049753;27;98525;-79
2024/01/04 09:23:59;;;;;;;11.65;2.90;;;;;;;;;;5049164;27;99387;-79
2024/01/04 09:26:25;;;;;;;9.30;3.40;;;;;;;;;;5048861;27;100442;-79
2024/01/04 09:28:52;;;;;;;5.60;2.42;;;;;;;;;;5049257;27;98931;-79
2024/01/04 09:31:18;;;;;;;5.57;2.90;;;;;;;;;;5048476;27;100046;-79
2024/01/04 09:33:45;;;;;;;8.68;3.25;;;;;;;;;;5052047;27;99989;-78
2024/01/04 09:36:11;;;;;;;5.05;3.30;;;;;;;;;;5048947;27;99838;-79
2024/01/04 09:38:38;;;;;;;4.38;2.72;;;;;;;;;;5048346;27;99875;-79
2024/01/04 09:41:25;;;;;;;5.40;3.30;;;;;;;;;;5049236;27;98194;-79
2024/01/04 09:44:03;;;;;;;5.90;3.65;;;;;;;;;;5049249;27;100906;-79
2024/01/04 09:46:33;;;;;;;7.45;3.90;;;;;;;;;;5054223;27;99984;-79
2024/01/04 09:49:00;;;;;;;8.38;3.50;;;;;;;;;;5048475;27;98603;-78
2024/01/04 09:51:28;;;;;;;7.40;3.80;;;;;;;;;;5050066;27;99562;-79
2024/01/04 09:53:55;;;;;;;7.97;4.13;;;;;;;;;;5048579;27;99077;-78
2024/01/04 09:56:22;;;;;;;7.88;4.13;;;;;;;;;;5051752;27;98341;-78
2024/01/04 09:58:49;;;;;;;4.97;3.58;;;;;;;;;;5047410;27;99050;-78
2024/01/04 10:01:20;;;;;;;11.30;4.05;;;;;;;;;;5048581;27;99214;-78
2024/01/04 10:03:48;;;;;;;8.30;4.00;;;;;;;;;;5051896;27;99571;-79
2024/01/04 10:06:19;;;;;;;4.38;3.92;;;;;;;;;;5047734;27;100486;-79
2024/01/04 10:08:49;;;;;;;8.63;4.43;;;;;;;;;;5049008;27;99570;-80
2024/01/04 10:11:19;;;;;;;12.23;4.50;;;;;;;;;;5047236;27;98717;-78
2024/01/04 10:13:49;;;;;;;6.00;3.97;;;;;;;;;;5047444;27;99985;-79
2024/01/04 10:16:16;;;;;;;4.45;4.05;;;;;;;;;;5048404;27;98172;-80
2024/01/04 10:18:42;;;;;;;5.80;3.90;;;;;;;;;;5051938;27;99366;-78
2024/01/04 10:21:10;;;;;;;4.40;4.00;;;;;;;;;;5047924;27;98077;-78
2024/01/04 10:23:37;;;;;;;4.63;4.05;;;;;;;;;;5048081;27;99648;-78
2024/01/04 10:26:07;;;;;;;15.63;4.65;;;;;;;;;;5048115;27;99916;-78
2024/01/04 10:28:35;;;;;;;8.95;4.50;;;;;;;;;;5047666;27;98395;-77
2024/01/04 10:31:03;;;;;;;4.93;4.07;;;;;;;;;;5047977;27;99373;-77
2024/01/04 10:33:29;;;;;;;6.45;4.18;;;;;;;;;;5048117;27;100567;-78
2024/01/04 10:36:06;;;;;;;3.92;3.50;;;;;;;;;;5047379;27;98690;-78
2024/01/04 10:38:33;;;;;;;7.80;4.18;;;;;;;;;;5048440;27;99577;-77
2024/01/04 10:41:01;;;;;;;4.80;4.28;;;;;;;;;;5050268;27;98368;-78
2024/01/04 10:43:30;;;;;;;8.55;3.63;;;;;;;;;;5047442;27;99417;-78
2024/01/04 10:46:05;;;;;;;6.15;5.00;;;;;;;;;;5047971;27;100226;-77
2024/01/04 10:48:31;;;;;;;5.72;3.95;;;;;;;;;;5046907;27;98045;-78
2024/01/04 10:51:01;;;;;;;4.57;3.85;;;;;;;;;;5047814;27;99589;-77
2024/01/04 10:53:30;;;;;;;6.25;4.03;;;;;;;;;;5047775;27;101184;-78
2024/01/04 10:55:57;;;;;;;6.53;4.45;;;;;;;;;;5047042;27;98254;-78
2024/01/04 10:58:31;;;;;;;3.97;3.33;;;;;;;;;;5048343;27;99975;-78
2024/01/04 11:00:58;;;;;;;3.55;3.03;;;;;;;;;;5050987;27;100093;-78
2024/01/04 11:03:25;;;;;;;4.47;4.00;;;;;;;;;;5047407;27;99894;-79
2024/01/04 11:05:52;;;;;;;5.47;3.90;;;;;;;;;;5047747;27;99973;-78
2024/01/04 11:08:18;;;;;;;5.10;3.65;;;;;;;;;;5046927;27;98144;-78
2024/01/04 11:10:45;;;;;;;8.80;3.90;;;;;;;;;;5047205;27;99754;-78
2024/01/04 11:13:12;;;;;;;3.42;3.10;;;;;;;;;;5046588;27;100042;-77
2024/01/04 11:15:39;;;;;;;6.47;3.50;;;;;;;;;;5047561;27;98285;-77
2024/01/04 11:18:08;;;;;;;4.40;3.83;;;;;;;;;;5046855;27;99514;-77
2024/01/04 11:20:37;;;;;;;7.70;3.42;;;;;;;;;;5047879;27;99938;-76
2024/01/04 11:23:20;;;;;;;6.00;3.60;;;;;;;;;;5049289;27;98339;-76
2024/01/04 11:25:52;;;;;;;4.17;3.57;;;;;;;;;;5046861;27;100153;-76
2024/01/04 11:28:19;;;;;;;7.10;4.03;;;;;;;;;;5047349;27;98118;-77
2024/01/04 11:31:03;;;;;;;4.72;3.70;;;;;;;;;;5047032;27;99818;-77
2024/01/04 11:33:32;;;;;;;5.40;3.72;;;;;;;;;;5047171;27;99940;-77
2024/01/04 11:35:58;;;;;;;6.63;3.88;;;;;;;;;;5047058;27;98369;-77
2024/01/04 11:38:30;;;;;;;6.70;4.35;;;;;;;;;;5045828;27;100079;-76
2024/01/04 11:40:57;;;;;;;4.50;4.10;;;;;;;;;;5047012;27;100003;-76
2024/01/04 11:43:34;;;;;;;11.13;4.65;;;;;;;;;;5047476;27;98270;-75
2024/01/04 11:46:05;;;;;;;8.73;4.80;;;;;;;;;;5048758;27;98701;-75
2024/01/04 11:48:31;;;;;;;7.63;4.65;;;;;;;;;;5047316;27;98544;-75
2024/01/04 11:50:59;;;;;;;4.68;4.28;;;;;;;;;;5046123;27;99601;-76
2024/01/04 11:53:26;;;;;;;3.22;2.92;;;;;;;;;;5046028;27;100107;-78
2024/01/04 11:56:03;;;;;;;9.60;4.22;;;;;;;;;;5047502;27;98225;-76
2024/01/04 11:58:29;;;;;;;4.35;3.92;;;;;;;;;;5047210;27;99400;-77
2024/01/04 12:00:57;;;;;;;6.10;3.90;;;;;;;;;;5046415;27;100299;-77
2024/01/04 12:03:27;;;;;;;4.13;3.78;;;;;;;;;;5046289;27;98390;-77
2024/01/04 12:05:56;;;;;;;4.72;4.03;;;;;;;;;;5046678;27;99704;-77
2024/01/04 12:08:29;;;;;;;5.93;3.35;;;;;;;;;;5050251;27;100172;-77
2024/01/04 12:10:59;;;;;;;3.80;3.50;;;;;;;;;;5047099;27;100854;-77
2024/01/04 12:13:25;;;;;;;5.95;3.25;;;;;;;;;;5046168;27;100019;-76
2024/01/04 12:15:52;;;;;;;5.10;3.60;;;;;;;;;;5047284;27;98801;-77
2024/01/04 12:18:21;;;;;;;4.88;3.65;;;;;;;;;;5047278;27;99423;-76
2024/01/04 12:20:52;;;;;;;4.70;3.28;;;;;;;;;;5047147;27;99900;-77
2024/01/04 12:23:29;;;;;;;3.88;2.55;;;;;;;;;;5047431;27;98465;-77
2024/01/04 12:25:56;;;;;;;4.93;2.50;;;;;;;;;;5049210;27;99494;-78
2024/01/04 12:28:23;;;;;;;6.13;2.38;;;;;;;;;;5046024;27;100469;-78
2024/01/04 12:30:49;;;;;;;1.80;1.70;;;;;;;;;;5051842;27;98301;-77
2024/01/04 12:33:16;;;;;;;4.40;2.33;;;;;;;;;;5047290;27;99982;-77
2024/01/04 12:35:43;;;;;;;7.43;1.88;;;;;;;;;;5046528;27;98451;-77
2024/01/04 12:38:09;;;;;;;1.88;1.60;;;;;;;;;;5046585;27;99612;-77
2024/01/04 12:40:40;;;;;;;1.70;1.60;;;;;;;;;;5046750;27;100054;-78
2024/01/04 12:43:10;;;;;;;4.35;2.28;;;;;;;;;;5045774;27;98169;-78
2024/01/04 12:45:37;;;;;;;5.15;1.45;;;;;;;;;;5046915;27;99455;-78
2024/01/04 12:48:05;;;;;;;6.20;1.70;;;;;;;;;;5045472;27;99881;-77
2024/01/04 12:50:33;;;;;;;1.75;1.65;;;;;;;;;;5049509;27;98430;-77
2024/01/04 12:53:01;;;;;;;7.90;1.73;;;;;;;;;;5045874;27;100112;-78
2024/01/04 12:55:27;;;;;;;8.05;2.15;;;;;;;;;;5045857;27;98268;-79
2024/01/04 12:57:54;;;;;;;4.13;2.05;;;;;;;;;;5046083;27;98937;-78
2024/01/04 13:00:21;;;;;;;4.50;1.63;;;;;;;;;;5046145;27;98993;-79
2024/01/04 13:02:48;;;;;;;2.90;1.40;;;;;;;;;;5046385;27;98659;-77
2024/01/04 13:05:14;;;;;;;3.25;1.40;;;;;;;;;;5049328;27;99302;-77
2024/01/04 13:07:41;;;;;;;1.83;1.30;;;;;;;;;;5049604;27;99899;-78
2024/01/04 13:10:10;;;;;;;1.88;1.48;;;;;;;;;;5049061;27;98341;-77
2024/01/04 13:12:37;;;;;;;1.40;1.25;;;;;;;;;;5052980;27;99447;-78
2024/01/04 13:15:04;;;;;;;3.97;1.20;;;;;;;;;;5048920;27;98256;-78
2024/01/04 13:17:31;;;;;;;2.42;1.50;;;;;;;;;;5047541;27;99756;-79
2024/01/04 13:19:58;;;;;;;2.10;1.80;;;;;;;;;;5049141;27;100872;-79
2024/01/04 13:22:28;;;;;;;1.73;1.50;;;;;;;;;;5048794;27;98304;-79
2024/01/04 13:24:54;;;;;;;1.55;1.40;;;;;;;;;;5049007;27;99452;-78
2024/01/04 13:27:21;;;;;;;2.08;1.85;;;;;;;;;;5048994;27;100000;-78
2024/01/04 13:29:48;;;;;;;3.95;1.50;;;;;;;;;;5049526;27;98719;-79
2024/01/04 13:32:15;;;;;;;2.08;1.27;;;;;;;;;;5047930;27;98285;-78
2024/01/04 13:34:42;;;;;;;5.43;1.60;;;;;;;;;;5059946;27;100242;-77
2024/01/04 13:37:09;;;;;;;2.80;1.48;;;;;;;;;;5048693;27;99191;-77
2024/01/04 13:39:35;;;;;;;2.67;1.60;;;;;;;;;;5048644;27;100272;-78
2024/01/04 13:42:02;;;;;;;4.40;1.80;;;;;;;;;;5048509;27;98201;-78
2024/01/04 13:44:28;;;;;;;3.72;1.52;;;;;;;;;;5048408;27;99597;-78
2024/01/04 13:46:54;;;;;;;3.47;1.73;;;;;;;;;;5049106;27;99949;-79
2024/01/04 13:49:21;;;;;;;3.13;1.45;;;;;;;;;;5049147;27;98309;-79
2024/01/04 13:51:48;;;;;;;1.75;1.65;;;;;;;;;;5048646;27;100093;-80
2024/01/04 13:54:14;;;;;;;2.83;1.60;;;;;;;;;;5051770;27;99708;-79
2024/01/04 13:56:41;;;;;;;2.58;1.40;;;;;;;;;;5052382;27;99217;-79
2024/01/04 13:59:08;;;;;;;1.30;1.20;;;;;;;;;;5048171;27;99970;-80
2024/01/04 14:01:35;;;;;;;2.72;1.73;;;;;;;;;;5048993;27;98298;-80
2024/01/04 14:04:01;;;;;;;2.20;1.67;;;;;;;;;;5048778;27;100214;-79
2024/01/04 14:06:28;;;;;;;4.90;1.20;;;;;;;;;;5047504;27;100039;-79
2024/01/04 14:08:55;;;;;;;5.00;1.65;;;;;;;;;;5048737;27;98224;-78
2024/01/04 14:11:22;;;;;;;2.10;1.65;;;;;;;;;;5049003;27;100395;-79
2024/01/04 14:13:50;;;;;;;3.30;1.15;;;;;;;;;;5047082;27;100305;-79
2024/01/04 14:16:17;;;;;;;3.25;1.40;;;;;;;;;;5048203;27;98104;-79
2024/01/04 14:18:44;;;;;;;3.72;1.25;;;;;;;;;;5052082;27;99757;-79
2024/01/04 14:21:10;;;;;;;3.70;0.90;;;;;;;;;;5047788;27;98349;-79
2024/01/04 14:23:37;;;;;;;1.23;0.90;;;;;;;;;;5048640;27;99077;-79
2024/01/04 14:26:03;;;;;;;0.70;0.70;;;;;;;;;;5048189;27;100153;-79
2024/01/04 14:28:30;;;;;;;1.52;0.95;;;;;;;;;;5047866;27;98198;-80
2024/01/04 14:30:56;;;;;;;1.13;0.90;;;;;;;;;;5047359;27;99300;-80
2024/01/04 14:33:23;;;;;;;0.88;0.88;;;;;;;;;;5048446;27;100184;-80
2024/01/04 14:36:00;;;;;;;1.17;1.08;;;;;;;;;;5048355;27;98190;-80
2024/01/04 14:38:27;;;;;;;1.85;0.93;;;;;;;;;;5048307;27;99488;-80